sensor_id;sensor_type;location;lat;lon;timestamp;temperature;humidity
13229;DHT22;6680;53.220;10.402;2023-01-01T00:00:13;14.90;99.90
13229;DHT22;6680;53.220;10.402;2023-01-01T00:02:41;14.90;99.90
13229;DHT22;6680;53.220;10.402;2023-01-01T00:05:08;15.00;99.90
13229;DHT22;6680;53.220;10.402;2023-01-01T00:07:35;15.00;99.90
13229;DHT22;6680;53.220;10.402;2023-01-01T00:10:01;15.00;99.90
13229;DHT22;6680;53.220;10.402;2023-01-01T00:12:46;15.00;99.90
13229;DHT22;6680;53.220;10.402;2023-01-01T00:15:12;15.00;99.90
13229;DHT22;6680;53.220;10.402;2023-01-01T00:17:40;15.00;99.90
13229;DHT22;6680;53.220;10.402;2023-01-01T00:20:08;15.10;99.90
13229;DHT22;6680;53.220;10.402;2023-01-01T00:22:35;15.10;99.90
13229;DHT22;6680;53.220;10.402;2023-01-01T00:25:02;15.10;99.90
13229;DHT22;6680;53.220;10.402;2023-01-01T00:27:29;15.10;99.90
13229;DHT22;6680;53.220;10.402;2023-01-01T00:29:56;15.20;99.90
13229;DHT22;6680;53.220;10.402;2023-01-01T00:32:22;15.20;99.90
13229;DHT22;6680;53.220;10.402;2023-01-01T00:34:50;15.20;99.90
13229;DHT22;6680;53.220;10.402;2023-01-01T00:37:17;15.30;99.90
13229;DHT22;6680;53.220;10.402;2023-01-01T00:39:44;15.20;99.90
13229;DHT22;6680;53.220;10.402;2023-01-01T00:42:11;15.20;99.90
13229;DHT22;6680;53.220;10.402;2023-01-01T00:44:37;15.20;99.90
13229;DHT22;6680;53.220;10.402;2023-01-01T00:47:04;15.10;99.90
13229;DHT22;6680;53.220;10.402;2023-01-01T00:49:31;15.20;99.90
13229;DHT22;6680;53.220;10.402;2023-01-01T00:51:59;15.20;99.90
13229;DHT22;6680;53.220;10.402;2023-01-01T00:54:26;15.10;99.90
13229;DHT22;6680;53.220;10.402;2023-01-01T00:56:52;15.20;99.90
13229;DHT22;6680;53.220;10.402;2023-01-01T00:59:20;15.30;99.90
13229;DHT22;6680;53.220;10.402;2023-01-01T01:01:46;15.30;99.90
13229;DHT22;6680;53.220;10.402;2023-01-01T01:04:13;15.20;99.90
13229;DHT22;6680;53.220;10.402;2023-01-01T01:06:40;15.30;99.90
13229;DHT22;6680;53.220;10.402;2023-01-01T01:09:08;15.30;99.90
13229;DHT22;6680;53.220;10.402;2023-01-01T01:11:35;15.30;99.90
13229;DHT22;6680;53.220;10.402;2023-01-01T01:14:01;15.30;99.90
13229;DHT22;6680;53.220;10.402;2023-01-01T01:16:30;15.40;99.90
13229;DHT22;6680;53.220;10.402;2023-01-01T01:18:58;15.40;99.90
13229;DHT22;6680;53.220;10.402;2023-01-01T01:21:26;15.30;99.90
13229;DHT22;6680;53.220;10.402;2023-01-01T01:23:56;15.10;99.90
13229;DHT22;6680;53.220;10.402;2023-01-01T01:26:26;15.30;99.90
13229;DHT22;6680;53.220;10.402;2023-01-01T01:28:54;15.40;99.90
13229;DHT22;6680;53.220;10.402;2023-01-01T01:31:24;15.40;99.90
13229;DHT22;6680;53.220;10.402;2023-01-01T01:33:52;15.40;99.90
13229;DHT22;6680;53.220;10.402;2023-01-01T01:36:19;15.30;99.90
13229;DHT22;6680;53.220;10.402;2023-01-01T01:38:46;15.40;99.90
13229;DHT22;6680;53.220;10.402;2023-01-01T01:41:14;15.40;99.90
13229;DHT22;6680;53.220;10.402;2023-01-01T01:43:57;15.30;99.90
13229;DHT22;6680;53.220;10.402;2023-01-01T01:46:29;15.40;99.90
13229;DHT22;6680;53.220;10.402;2023-01-01T01:49:02;15.30;99.90
13229;DHT22;6680;53.220;10.402;2023-01-01T01:51:33;15.30;99.90
13229;DHT22;6680;53.220;10.402;2023-01-01T01:54:03;15.30;99.90
13229;DHT22;6680;53.220;10.402;2023-01-01T01:56:37;15.30;99.90
13229;DHT22;6680;53.220;10.402;2023-01-01T01:59:07;15.40;99.90
13229;DHT22;6680;53.220;10.402;2023-01-01T02:01:34;15.50;99.90
13229;DHT22;6680;53.220;10.402;2023-01-01T02:04:03;15.50;99.90
13229;DHT22;6680;53.220;10.402;2023-01-01T02:06:31;15.50;99.90
13229;DHT22;6680;53.220;10.402;2023-01-01T02:09:02;15.50;99.90
13229;DHT22;6680;53.220;10.402;2023-01-01T02:11:29;15.50;99.90
13229;DHT22;6680;53.220;10.402;2023-01-01T02:13:57;15.50;99.90
13229;DHT22;6680;53.220;10.402;2023-01-01T02:16:35;15.50;99.90
13229;DHT22;6680;53.220;10.402;2023-01-01T02:19:09;15.50;99.90
13229;DHT22;6680;53.220;10.402;2023-01-01T02:21:48;15.50;99.90
13229;DHT22;6680;53.220;10.402;2023-01-01T02:24:33;15.70;99.90
13229;DHT22;6680;53.220;10.402;2023-01-01T02:27:04;15.50;99.90
13229;DHT22;6680;53.220;10.402;2023-01-01T02:29:40;15.50;99.90
13229;DHT22;6680;53.220;10.402;2023-01-01T02:32:10;15.50;99.90
13229;DHT22;6680;53.220;10.402;2023-01-01T02:34:40;15.50;99.90
13229;DHT22;6680;53.220;10.402;2023-01-01T02:37:11;15.50;99.90
13229;DHT22;6680;53.220;10.402;2023-01-01T02:39:43;15.40;99.90
13229;DHT22;6680;53.220;10.402;2023-01-01T02:42:11;15.40;99.90
13229;DHT22;6680;53.220;10.402;2023-01-01T02:44:41;15.40;99.90
13229;DHT22;6680;53.220;10.402;2023-01-01T02:47:11;15.40;99.90
13229;DHT22;6680;53.220;10.402;2023-01-01T02:49:45;15.40;99.90
13229;DHT22;6680;53.220;10.402;2023-01-01T02:52:20;15.40;99.90
13229;DHT22;6680;53.220;10.402;2023-01-01T02:54:56;15.50;99.90
13229;DHT22;6680;53.220;10.402;2023-01-01T02:57:32;15.50;99.90
13229;DHT22;6680;53.220;10.402;2023-01-01T03:00:07;15.50;99.90
13229;DHT22;6680;53.220;10.402;2023-01-01T03:02:51;15.50;99.90
13229;DHT22;6680;53.220;10.402;2023-01-01T03:05:27;15.40;99.90
13229;DHT22;6680;53.220;10.402;2023-01-01T03:08:02;15.40;99.90
13229;DHT22;6680;53.220;10.402;2023-01-01T03:10:33;15.40;99.90
13229;DHT22;6680;53.220;10.402;2023-01-01T03:13:08;15.40;99.90
13229;DHT22;6680;53.220;10.402;2023-01-01T03:15:43;15.40;99.90
13229;DHT22;6680;53.220;10.402;2023-01-01T03:18:17;15.40;99.90
13229;DHT22;6680;53.220;10.402;2023-01-01T03:20:49;15.30;99.90
13229;DHT22;6680;53.220;10.402;2023-01-01T03:23:20;15.30;99.90
13229;DHT22;6680;53.220;10.402;2023-01-01T03:25:51;15.30;99.90
13229;DHT22;6680;53.220;10.402;2023-01-01T03:28:21;15.20;99.90
13229;DHT22;6680;53.220;10.402;2023-01-01T03:30:52;15.20;99.90
13229;DHT22;6680;53.220;10.402;2023-01-01T03:33:22;15.20;99.90
13229;DHT22;6680;53.220;10.402;2023-01-01T03:35:53;15.20;99.90
13229;DHT22;6680;53.220;10.402;2023-01-01T03:38:28;15.20;99.90
13229;DHT22;6680;53.220;10.402;2023-01-01T03:40:59;15.10;99.90
13229;DHT22;6680;53.220;10.402;2023-01-01T03:43:33;15.10;99.90
13229;DHT22;6680;53.220;10.402;2023-01-01T03:46:07;15.00;99.90
13229;DHT22;6680;53.220;10.402;2023-01-01T03:48:34;14.90;99.90
13229;DHT22;6680;53.220;10.402;2023-01-01T03:51:24;14.90;99.90
13229;DHT22;6680;53.220;10.402;2023-01-01T03:53:53;14.90;99.90
13229;DHT22;6680;53.220;10.402;2023-01-01T03:56:28;14.80;99.90
13229;DHT22;6680;53.220;10.402;2023-01-01T03:59:04;14.80;99.90
13229;DHT22;6680;53.220;10.402;2023-01-01T04:01:39;14.80;99.90
13229;DHT22;6680;53.220;10.402;2023-01-01T04:04:09;17.00;99.90
13229;DHT22;6680;53.220;10.402;2023-01-01T04:06:37;14.80;99.90
13229;DHT22;6680;53.220;10.402;2023-01-01T04:09:09;14.70;99.90
13229;DHT22;6680;53.220;10.402;2023-01-01T04:11:40;14.80;99.90
13229;DHT22;6680;53.220;10.402;2023-01-01T04:14:26;14.80;99.90
13229;DHT22;6680;53.220;10.402;2023-01-01T04:16:55;14.90;99.90
13229;DHT22;6680;53.220;10.402;2023-01-01T04:19:22;14.90;99.90
13229;DHT22;6680;53.220;10.402;2023-01-01T04:21:49;14.80;99.90
13229;DHT22;6680;53.220;10.402;2023-01-01T04:24:16;14.90;99.90
13229;DHT22;6680;53.220;10.402;2023-01-01T04:26:42;14.80;99.90
13229;DHT22;6680;53.220;10.402;2023-01-01T04:29:09;14.80;99.90
13229;DHT22;6680;53.220;10.402;2023-01-01T04:31:36;14.80;99.90
13229;DHT22;6680;53.220;10.402;2023-01-01T04:34:04;14.90;99.90
13229;DHT22;6680;53.220;10.402;2023-01-01T04:36:31;14.80;99.90
13229;DHT22;6680;53.220;10.402;2023-01-01T04:38:58;14.70;99.90
13229;DHT22;6680;53.220;10.402;2023-01-01T04:41:25;14.70;99.90
13229;DHT22;6680;53.220;10.402;2023-01-01T04:43:52;14.70;99.90
13229;DHT22;6680;53.220;10.402;2023-01-01T04:46:19;14.60;99.90
13229;DHT22;6680;53.220;10.402;2023-01-01T04:48:47;14.60;99.90
13229;DHT22;6680;53.220;10.402;2023-01-01T04:51:17;14.70;99.90
13229;DHT22;6680;53.220;10.402;2023-01-01T04:53:43;14.70;99.90
13229;DHT22;6680;53.220;10.402;2023-01-01T04:56:12;14.70;99.90
13229;DHT22;6680;53.220;10.402;2023-01-01T04:58:40;14.70;99.90
13229;DHT22;6680;53.220;10.402;2023-01-01T05:01:13;14.70;99.90
13229;DHT22;6680;53.220;10.402;2023-01-01T05:03:40;14.70;99.90
13229;DHT22;6680;53.220;10.402;2023-01-01T05:06:08;14.70;99.90
13229;DHT22;6680;53.220;10.402;2023-01-01T05:08:37;14.80;99.90
13229;DHT22;6680;53.220;10.402;2023-01-01T05:11:06;14.80;99.90
13229;DHT22;6680;53.220;10.402;2023-01-01T05:13:33;14.80;99.90
13229;DHT22;6680;53.220;10.402;2023-01-01T05:16:01;14.80;99.90
13229;DHT22;6680;53.220;10.402;2023-01-01T05:18:28;14.80;99.90
13229;DHT22;6680;53.220;10.402;2023-01-01T05:20:58;14.80;99.90
13229;DHT22;6680;53.220;10.402;2023-01-01T05:23:25;14.70;99.90
13229;DHT22;6680;53.220;10.402;2023-01-01T05:25:53;14.70;99.90
13229;DHT22;6680;53.220;10.402;2023-01-01T05:28:20;14.70;99.90
13229;DHT22;6680;53.220;10.402;2023-01-01T05:30:47;14.70;99.90
13229;DHT22;6680;53.220;10.402;2023-01-01T05:33:14;14.60;99.90
13229;DHT22;6680;53.220;10.402;2023-01-01T05:35:41;14.60;99.90
13229;DHT22;6680;53.220;10.402;2023-01-01T05:38:07;14.50;99.90
13229;DHT22;6680;53.220;10.402;2023-01-01T05:40:36;14.50;99.90
13229;DHT22;6680;53.220;10.402;2023-01-01T05:43:05;14.40;99.90
13229;DHT22;6680;53.220;10.402;2023-01-01T05:45:31;14.40;99.90
13229;DHT22;6680;53.220;10.402;2023-01-01T05:47:58;14.40;99.90
13229;DHT22;6680;53.220;10.402;2023-01-01T05:50:25;14.40;99.90
13229;DHT22;6680;53.220;10.402;2023-01-01T05:52:51;14.30;99.90
13229;DHT22;6680;53.220;10.402;2023-01-01T05:55:18;14.30;99.90
13229;DHT22;6680;53.220;10.402;2023-01-01T05:57:45;14.30;99.90
13229;DHT22;6680;53.220;10.402;2023-01-01T06:00:14;14.30;99.90
13229;DHT22;6680;53.220;10.402;2023-01-01T06:02:41;14.30;99.90
13229;DHT22;6680;53.220;10.402;2023-01-01T06:05:08;14.30;99.90
13229;DHT22;6680;53.220;10.402;2023-01-01T06:07:34;14.30;99.90
13229;DHT22;6680;53.220;10.402;2023-01-01T06:10:01;14.30;99.90
13229;DHT22;6680;53.220;10.402;2023-01-01T06:12:28;14.40;99.90
13229;DHT22;6680;53.220;10.402;2023-01-01T06:14:54;14.40;99.90
13229;DHT22;6680;53.220;10.402;2023-01-01T06:17:22;14.40;99.90
13229;DHT22;6680;53.220;10.402;2023-01-01T06:19:49;14.40;99.90
13229;DHT22;6680;53.220;10.402;2023-01-01T06:22:16;14.40;99.90
13229;DHT22;6680;53.220;10.402;2023-01-01T06:24:43;14.50;99.90
13229;DHT22;6680;53.220;10.402;2023-01-01T06:27:09;14.50;99.90
13229;DHT22;6680;53.220;10.402;2023-01-01T06:29:36;14.60;99.90
13229;DHT22;6680;53.220;10.402;2023-01-01T06:32:03;14.50;99.90
13229;DHT22;6680;53.220;10.402;2023-01-01T06:34:31;14.50;99.90
13229;DHT22;6680;53.220;10.402;2023-01-01T06:36:58;14.50;99.90
13229;DHT22;6680;53.220;10.402;2023-01-01T06:39:25;14.50;99.90
13229;DHT22;6680;53.220;10.402;2023-01-01T06:41:51;14.50;99.90
13229;DHT22;6680;53.220;10.402;2023-01-01T06:44:18;14.60;99.90
13229;DHT22;6680;53.220;10.402;2023-01-01T06:46:45;14.60;99.90
13229;DHT22;6680;53.220;10.402;2023-01-01T06:49:12;14.60;99.90
13229;DHT22;6680;53.220;10.402;2023-01-01T06:51:41;14.60;99.90
13229;DHT22;6680;53.220;10.402;2023-01-01T06:54:09;14.20;99.90
13229;DHT22;6680;53.220;10.402;2023-01-01T06:56:36;14.50;99.90
13229;DHT22;6680;53.220;10.402;2023-01-01T06:59:03;14.50;99.90
13229;DHT22;6680;53.220;10.402;2023-01-01T07:01:32;14.50;99.90
13229;DHT22;6680;53.220;10.402;2023-01-01T07:04:01;14.50;99.90
13229;DHT22;6680;53.220;10.402;2023-01-01T07:06:30;14.50;99.90
13229;DHT22;6680;53.220;10.402;2023-01-01T07:08:58;14.50;99.90
13229;DHT22;6680;53.220;10.402;2023-01-01T07:11:25;14.60;99.90
13229;DHT22;6680;53.220;10.402;2023-01-01T07:13:52;14.50;99.90
13229;DHT22;6680;53.220;10.402;2023-01-01T07:16:19;14.50;99.90
13229;DHT22;6680;53.220;10.402;2023-01-01T07:18:46;14.50;99.90
13229;DHT22;6680;53.220;10.402;2023-01-01T07:21:26;14.40;99.90
13229;DHT22;6680;53.220;10.402;2023-01-01T07:23:53;14.30;99.90
13229;DHT22;6680;53.220;10.402;2023-01-01T07:26:23;14.30;99.90
13229;DHT22;6680;53.220;10.402;2023-01-01T07:28:50;14.20;99.90
13229;DHT22;6680;53.220;10.402;2023-01-01T07:31:16;14.20;99.90
13229;DHT22;6680;53.220;10.402;2023-01-01T07:33:43;14.20;99.90
13229;DHT22;6680;53.220;10.402;2023-01-01T07:36:10;14.30;99.90
13229;DHT22;6680;53.220;10.402;2023-01-01T07:38:36;14.30;99.90
13229;DHT22;6680;53.220;10.402;2023-01-01T07:41:03;14.30;99.90
13229;DHT22;6680;53.220;10.402;2023-01-01T07:43:31;14.30;99.90
13229;DHT22;6680;53.220;10.402;2023-01-01T07:45:58;14.40;99.90
13229;DHT22;6680;53.220;10.402;2023-01-01T07:48:25;14.30;99.90
13229;DHT22;6680;53.220;10.402;2023-01-01T07:50:52;14.30;99.90
13229;DHT22;6680;53.220;10.402;2023-01-01T07:53:19;14.40;99.90
13229;DHT22;6680;53.220;10.402;2023-01-01T07:55:46;14.40;99.90
13229;DHT22;6680;53.220;10.402;2023-01-01T07:58:13;14.40;99.90
13229;DHT22;6680;53.220;10.402;2023-01-01T08:00:45;14.40;99.90
13229;DHT22;6680;53.220;10.402;2023-01-01T08:03:12;14.40;99.90
13229;DHT22;6680;53.220;10.402;2023-01-01T08:05:39;14.40;99.90
13229;DHT22;6680;53.220;10.402;2023-01-01T08:08:05;14.40;99.90
13229;DHT22;6680;53.220;10.402;2023-01-01T08:10:32;14.40;99.90
13229;DHT22;6680;53.220;10.402;2023-01-01T08:12:59;14.40;99.90
13229;DHT22;6680;53.220;10.402;2023-01-01T08:15:26;14.40;99.90
13229;DHT22;6680;53.220;10.402;2023-01-01T08:17:56;14.30;99.90
13229;DHT22;6680;53.220;10.402;2023-01-01T08:20:24;14.40;99.90
13229;DHT22;6680;53.220;10.402;2023-01-01T08:22:51;14.40;99.90
13229;DHT22;6680;53.220;10.402;2023-01-01T08:25:18;14.30;99.90
13229;DHT22;6680;53.220;10.402;2023-01-01T08:27:44;14.40;99.90
13229;DHT22;6680;53.220;10.402;2023-01-01T08:30:13;14.40;99.90
13229;DHT22;6680;53.220;10.402;2023-01-01T08:32:40;14.40;99.90
13229;DHT22;6680;53.220;10.402;2023-01-01T08:35:09;14.30;99.90
13229;DHT22;6680;53.220;10.402;2023-01-01T08:37:35;14.30;99.90
13229;DHT22;6680;53.220;10.402;2023-01-01T08:40:03;14.30;99.90
13229;DHT22;6680;53.220;10.402;2023-01-01T08:42:29;14.40;99.90
13229;DHT22;6680;53.220;10.402;2023-01-01T08:44:56;14.40;99.90
13229;DHT22;6680;53.220;10.402;2023-01-01T08:47:24;14.40;99.90
13229;DHT22;6680;53.220;10.402;2023-01-01T08:49:51;14.50;99.90
13229;DHT22;6680;53.220;10.402;2023-01-01T08:52:20;14.50;99.90
13229;DHT22;6680;53.220;10.402;2023-01-01T08:54:47;14.50;99.90
13229;DHT22;6680;53.220;10.402;2023-01-01T08:57:14;14.50;99.90
13229;DHT22;6680;53.220;10.402;2023-01-01T08:59:41;14.60;99.90
13229;DHT22;6680;53.220;10.402;2023-01-01T09:02:08;14.60;99.90
13229;DHT22;6680;53.220;10.402;2023-01-01T09:04:35;14.60;99.90
13229;DHT22;6680;53.220;10.402;2023-01-01T09:07:02;14.60;99.90
13229;DHT22;6680;53.220;10.402;2023-01-01T09:09:30;14.60;99.90
13229;DHT22;6680;53.220;10.402;2023-01-01T09:11:58;14.60;99.90
13229;DHT22;6680;53.220;10.402;2023-01-01T09:14:28;15.70;99.90
13229;DHT22;6680;53.220;10.402;2023-01-01T09:16:55;14.70;99.90
13229;DHT22;6680;53.220;10.402;2023-01-01T09:19:22;14.70;99.90
13229;DHT22;6680;53.220;10.402;2023-01-01T09:21:49;14.70;99.90
13229;DHT22;6680;53.220;10.402;2023-01-01T09:24:15;14.80;99.90
13229;DHT22;6680;53.220;10.402;2023-01-01T09:26:44;14.60;99.90
13229;DHT22;6680;53.220;10.402;2023-01-01T09:29:11;14.60;99.90
13229;DHT22;6680;53.220;10.402;2023-01-01T09:31:37;14.60;99.90
13229;DHT22;6680;53.220;10.402;2023-01-01T09:34:04;14.70;99.90
13229;DHT22;6680;53.220;10.402;2023-01-01T09:36:32;14.70;99.90
13229;DHT22;6680;53.220;10.402;2023-01-01T09:38:59;14.70;99.90
13229;DHT22;6680;53.220;10.402;2023-01-01T09:41:37;14.70;99.90
13229;DHT22;6680;53.220;10.402;2023-01-01T09:44:15;14.70;99.90
13229;DHT22;6680;53.220;10.402;2023-01-01T09:46:43;14.70;99.90
13229;DHT22;6680;53.220;10.402;2023-01-01T09:49:12;14.70;99.90
13229;DHT22;6680;53.220;10.402;2023-01-01T09:51:41;14.70;99.90
13229;DHT22;6680;53.220;10.402;2023-01-01T09:54:14;15.00;99.90
13229;DHT22;6680;53.220;10.402;2023-01-01T09:56:43;14.80;99.90
13229;DHT22;6680;53.220;10.402;2023-01-01T09:59:12;14.80;99.90
13229;DHT22;6680;53.220;10.402;2023-01-01T10:01:46;14.80;99.90
13229;DHT22;6680;53.220;10.402;2023-01-01T10:04:39;14.60;99.90
13229;DHT22;6680;53.220;10.402;2023-01-01T10:07:13;14.80;99.90
13229;DHT22;6680;53.220;10.402;2023-01-01T10:09:48;14.80;99.90
13229;DHT22;6680;53.220;10.402;2023-01-01T10:12:20;14.80;99.90
13229;DHT22;6680;53.220;10.402;2023-01-01T10:14:54;14.70;99.90
13229;DHT22;6680;53.220;10.402;2023-01-01T10:17:28;14.70;99.90
13229;DHT22;6680;53.220;10.402;2023-01-01T10:19:59;15.50;99.90
13229;DHT22;6680;53.220;10.402;2023-01-01T10:22:32;14.80;99.90
13229;DHT22;6680;53.220;10.402;2023-01-01T10:25:04;14.70;99.90
13229;DHT22;6680;53.220;10.402;2023-01-01T10:27:34;15.50;99.90
13229;DHT22;6680;53.220;10.402;2023-01-01T10:30:12;14.80;99.90
13229;DHT22;6680;53.220;10.402;2023-01-01T10:32:40;14.70;99.90
13229;DHT22;6680;53.220;10.402;2023-01-01T10:35:12;14.70;99.90
13229;DHT22;6680;53.220;10.402;2023-01-01T10:37:40;14.70;99.90
13229;DHT22;6680;53.220;10.402;2023-01-01T10:40:14;14.70;99.90
13229;DHT22;6680;53.220;10.402;2023-01-01T10:42:42;14.70;99.90
13229;DHT22;6680;53.220;10.402;2023-01-01T10:45:15;14.70;99.90
13229;DHT22;6680;53.220;10.402;2023-01-01T10:50:52;14.60;99.90
13229;DHT22;6680;53.220;10.402;2023-01-01T10:53:26;14.50;99.90
13229;DHT22;6680;53.220;10.402;2023-01-01T10:56:02;14.50;99.90
13229;DHT22;6680;53.220;10.402;2023-01-01T10:58:35;14.50;99.90
13229;DHT22;6680;53.220;10.402;2023-01-01T11:01:05;14.60;99.90
13229;DHT22;6680;53.220;10.402;2023-01-01T11:03:32;14.60;99.90
13229;DHT22;6680;53.220;10.402;2023-01-01T11:06:02;14.50;99.90
13229;DHT22;6680;53.220;10.402;2023-01-01T11:08:31;14.50;99.90
13229;DHT22;6680;53.220;10.402;2023-01-01T11:10:59;14.50;99.90
13229;DHT22;6680;53.220;10.402;2023-01-01T11:13:27;14.50;99.90
13229;DHT22;6680;53.220;10.402;2023-01-01T11:15:55;14.50;99.90
13229;DHT22;6680;53.220;10.402;2023-01-01T11:18:26;14.50;99.90
13229;DHT22;6680;53.220;10.402;2023-01-01T11:21:00;14.40;99.90
13229;DHT22;6680;53.220;10.402;2023-01-01T11:23:30;14.30;99.90
13229;DHT22;6680;53.220;10.402;2023-01-01T11:26:03;14.20;99.90
13229;DHT22;6680;53.220;10.402;2023-01-01T11:28:31;14.20;99.90
13229;DHT22;6680;53.220;10.402;2023-01-01T11:31:03;14.10;99.90
13229;DHT22;6680;53.220;10.402;2023-01-01T11:33:34;14.00;99.90
13229;DHT22;6680;53.220;10.402;2023-01-01T11:36:04;13.90;99.90
13229;DHT22;6680;53.220;10.402;2023-01-01T11:38:31;13.90;99.90
13229;DHT22;6680;53.220;10.402;2023-01-01T11:41:02;13.80;99.90
13229;DHT22;6680;53.220;10.402;2023-01-01T11:43:36;13.70;99.90
13229;DHT22;6680;53.220;10.402;2023-01-01T11:46:06;13.60;99.90
13229;DHT22;6680;53.220;10.402;2023-01-01T11:48:38;13.50;99.90
13229;DHT22;6680;53.220;10.402;2023-01-01T11:51:07;13.50;99.90
13229;DHT22;6680;53.220;10.402;2023-01-01T11:53:37;13.40;99.90
13229;DHT22;6680;53.220;10.402;2023-01-01T11:56:10;13.40;99.90
13229;DHT22;6680;53.220;10.402;2023-01-01T11:58:42;13.40;99.90
13229;DHT22;6680;53.220;10.402;2023-01-01T12:01:15;13.40;99.90
13229;DHT22;6680;53.220;10.402;2023-01-01T12:03:50;13.40;99.90
13229;DHT22;6680;53.220;10.402;2023-01-01T12:06:22;13.40;99.90
13229;DHT22;6680;53.220;10.402;2023-01-01T12:08:55;13.40;99.90
13229;DHT22;6680;53.220;10.402;2023-01-01T12:11:27;13.40;99.90
13229;DHT22;6680;53.220;10.402;2023-01-01T12:13:56;13.40;99.90
13229;DHT22;6680;53.220;10.402;2023-01-01T12:16:46;13.40;99.90
13229;DHT22;6680;53.220;10.402;2023-01-01T12:19:20;13.40;99.90
13229;DHT22;6680;53.220;10.402;2023-01-01T12:21:48;13.30;99.90
13229;DHT22;6680;53.220;10.402;2023-01-01T12:24:17;13.30;99.90
13229;DHT22;6680;53.220;10.402;2023-01-01T12:26:54;13.40;99.90
13229;DHT22;6680;53.220;10.402;2023-01-01T12:29:33;13.30;99.90
13229;DHT22;6680;53.220;10.402;2023-01-01T12:32:05;13.30;99.90
13229;DHT22;6680;53.220;10.402;2023-01-01T12:34:37;13.20;99.90
13229;DHT22;6680;53.220;10.402;2023-01-01T12:37:10;13.10;99.90
13229;DHT22;6680;53.220;10.402;2023-01-01T12:42:49;13.00;99.90
13229;DHT22;6680;53.220;10.402;2023-01-01T12:45:34;12.90;99.90
13229;DHT22;6680;53.220;10.402;2023-01-01T12:48:28;12.90;99.90
13229;DHT22;6680;53.220;10.402;2023-01-01T12:51:03;12.80;99.90
13229;DHT22;6680;53.220;10.402;2023-01-01T12:53:39;12.80;99.90
13229;DHT22;6680;53.220;10.402;2023-01-01T12:56:13;12.80;99.90
13229;DHT22;6680;53.220;10.402;2023-01-01T12:58:44;12.70;99.90
13229;DHT22;6680;53.220;10.402;2023-01-01T13:01:18;12.70;99.90
13229;DHT22;6680;53.220;10.402;2023-01-01T13:03:48;12.70;99.90
13229;DHT22;6680;53.220;10.402;2023-01-01T13:06:20;12.70;99.90
13229;DHT22;6680;53.220;10.402;2023-01-01T13:08:51;12.70;99.90
13229;DHT22;6680;53.220;10.402;2023-01-01T13:11:21;12.70;99.90
13229;DHT22;6680;53.220;10.402;2023-01-01T13:13:51;12.70;99.90
13229;DHT22;6680;53.220;10.402;2023-01-01T13:16:31;12.70;99.90
13229;DHT22;6680;53.220;10.402;2023-01-01T13:18:58;12.70;99.90
13229;DHT22;6680;53.220;10.402;2023-01-01T13:21:26;12.70;99.90
13229;DHT22;6680;53.220;10.402;2023-01-01T13:23:59;12.70;99.90
13229;DHT22;6680;53.220;10.402;2023-01-01T13:26:39;12.60;99.90
13229;DHT22;6680;53.220;10.402;2023-01-01T13:29:31;12.60;99.90
13229;DHT22;6680;53.220;10.402;2023-01-01T13:32:06;12.60;99.90
13229;DHT22;6680;53.220;10.402;2023-01-01T13:37:52;12.50;99.90
13229;DHT22;6680;53.220;10.402;2023-01-01T13:40:47;12.40;99.90
13229;DHT22;6680;53.220;10.402;2023-01-01T13:43:27;12.40;99.90
13229;DHT22;6680;53.220;10.402;2023-01-01T13:45:54;12.30;99.90
13229;DHT22;6680;53.220;10.402;2023-01-01T13:51:28;12.30;99.90
13229;DHT22;6680;53.220;10.402;2023-01-01T13:54:19;12.20;99.90
13229;DHT22;6680;53.220;10.402;2023-01-01T13:56:53;12.20;99.90
13229;DHT22;6680;53.220;10.402;2023-01-01T13:59:53;12.10;99.90
13229;DHT22;6680;53.220;10.402;2023-01-01T14:02:25;12.10;99.90
13229;DHT22;6680;53.220;10.402;2023-01-01T14:04:55;12.10;99.90
13229;DHT22;6680;53.220;10.402;2023-01-01T14:07:31;12.10;99.90
13229;DHT22;6680;53.220;10.402;2023-01-01T14:13:13;12.20;99.90
13229;DHT22;6680;53.220;10.402;2023-01-01T14:15:49;12.10;99.90
13229;DHT22;6680;53.220;10.402;2023-01-01T14:18:17;12.00;99.90
13229;DHT22;6680;53.220;10.402;2023-01-01T14:20:48;12.00;99.90
13229;DHT22;6680;53.220;10.402;2023-01-01T14:23:19;11.90;99.90
13229;DHT22;6680;53.220;10.402;2023-01-01T14:25:50;11.80;99.90
13229;DHT22;6680;53.220;10.402;2023-01-01T14:28:20;11.80;99.90
13229;DHT22;6680;53.220;10.402;2023-01-01T14:30:49;11.70;99.90
13229;DHT22;6680;53.220;10.402;2023-01-01T14:33:22;11.80;99.90
13229;DHT22;6680;53.220;10.402;2023-01-01T14:35:53;11.80;99.90
13229;DHT22;6680;53.220;10.402;2023-01-01T14:38:24;11.90;99.90
13229;DHT22;6680;53.220;10.402;2023-01-01T14:41:06;11.90;99.90
13229;DHT22;6680;53.220;10.402;2023-01-01T14:43:35;11.90;99.90
13229;DHT22;6680;53.220;10.402;2023-01-01T14:46:03;11.90;99.90
13229;DHT22;6680;53.220;10.402;2023-01-01T14:48:30;11.90;99.90
13229;DHT22;6680;53.220;10.402;2023-01-01T14:50:57;11.90;99.90
13229;DHT22;6680;53.220;10.402;2023-01-01T14:53:29;11.90;99.90
13229;DHT22;6680;53.220;10.402;2023-01-01T14:55:57;12.00;99.90
13229;DHT22;6680;53.220;10.402;2023-01-01T14:58:27;12.00;99.90
13229;DHT22;6680;53.220;10.402;2023-01-01T15:01:12;12.00;99.90
13229;DHT22;6680;53.220;10.402;2023-01-01T15:03:39;11.90;99.90
13229;DHT22;6680;53.220;10.402;2023-01-01T15:06:15;11.90;99.90
13229;DHT22;6680;53.220;10.402;2023-01-01T15:08:47;11.80;99.90
13229;DHT22;6680;53.220;10.402;2023-01-01T15:11:14;11.80;99.90
13229;DHT22;6680;53.220;10.402;2023-01-01T15:13:52;11.80;99.90
13229;DHT22;6680;53.220;10.402;2023-01-01T15:16:19;11.80;99.90
13229;DHT22;6680;53.220;10.402;2023-01-01T15:18:47;11.70;99.90
13229;DHT22;6680;53.220;10.402;2023-01-01T15:21:16;11.80;99.90
13229;DHT22;6680;53.220;10.402;2023-01-01T15:23:50;11.80;99.90
13229;DHT22;6680;53.220;10.402;2023-01-01T15:26:26;11.80;99.90
13229;DHT22;6680;53.220;10.402;2023-01-01T15:28:56;11.70;99.90
13229;DHT22;6680;53.220;10.402;2023-01-01T15:31:32;11.80;99.90
13229;DHT22;6680;53.220;10.402;2023-01-01T15:33:59;11.70;99.90
13229;DHT22;6680;53.220;10.402;2023-01-01T15:36:26;11.80;99.90
13229;DHT22;6680;53.220;10.402;2023-01-01T15:38:53;11.70;99.90
13229;DHT22;6680;53.220;10.402;2023-01-01T15:41:35;11.60;99.90
13229;DHT22;6680;53.220;10.402;2023-01-01T15:44:19;11.60;99.90
13229;DHT22;6680;53.220;10.402;2023-01-01T15:46:48;11.50;99.90
13229;DHT22;6680;53.220;10.402;2023-01-01T15:49:25;11.50;99.90
13229;DHT22;6680;53.220;10.402;2023-01-01T15:51:54;11.40;99.90
13229;DHT22;6680;53.220;10.402;2023-01-01T15:54:21;11.10;99.90
13229;DHT22;6680;53.220;10.402;2023-01-01T15:56:48;11.30;99.90
13229;DHT22;6680;53.220;10.402;2023-01-01T15:59:22;11.30;99.90
13229;DHT22;6680;53.220;10.402;2023-01-01T16:01:50;11.30;99.90
13229;DHT22;6680;53.220;10.402;2023-01-01T16:04:18;11.30;99.90